sensor_id;sensor_type;location;lat;lon;timestamp;pressure;altitude;pressure_sealevel;temperature;humidity
18749;BME280;9503;53.560;10.246;2023-04-30T00:02:10;101551.63;;;9.65;72.43
18749;BME280;9503;53.560;10.246;2023-04-30T00:04:36;101557.31;;;9.61;72.51
18749;BME280;9503;53.560;10.246;2023-04-30T00:07:03;101546.00;;;9.57;73.09
18749;BME280;9503;53.560;10.246;2023-04-30T00:09:30;101554.47;;;9.69;72.73
18749;BME280;9503;53.560;10.246;2023-04-30T00:11:56;101554.56;;;9.71;72.25
18749;BME280;9503;53.560;10.246;2023-04-30T00:14:23;101559.00;;;9.87;71.15
18749;BME280;9503;53.560;10.246;2023-04-30T00:16:51;101567.56;;;9.87;71.29
18749;BME280;9503;53.560;10.246;2023-04-30T00:19:18;101561.97;;;9.93;70.92
18749;BME280;9503;53.560;10.246;2023-04-30T00:21:44;101565.59;;;9.83;70.91
18749;BME280;9503;53.560;10.246;2023-04-30T00:24:11;101571.63;;;9.71;71.70
18749;BME280;9503;53.560;10.246;2023-04-30T00:26:38;101577.22;;;9.65;71.25
18749;BME280;9503;53.560;10.246;2023-04-30T00:29:05;101578.66;;;9.61;71.49
18749;BME280;9503;53.560;10.246;2023-04-30T00:31:32;101576.72;;;9.57;71.75
18749;BME280;9503;53.560;10.246;2023-04-30T00:34:02;101571.19;;;9.51;71.95
18749;BME280;9503;53.560;10.246;2023-04-30T00:36:28;101575.03;;;9.58;71.94
18749;BME280;9503;53.560;10.246;2023-04-30T00:38:55;101578.56;;;9.47;71.59
18749;BME280;9503;53.560;10.246;2023-04-30T00:41:22;101581.91;;;9.46;72.08
18749;BME280;9503;53.560;10.246;2023-04-30T00:43:49;101584.13;;;9.28;72.82
18749;BME280;9503;53.560;10.246;2023-04-30T00:46:16;101585.22;;;9.31;72.98
18749;BME280;9503;53.560;10.246;2023-04-30T00:48:42;101586.66;;;9.14;74.04
18749;BME280;9503;53.560;10.246;2023-04-30T00:51:10;101589.84;;;8.99;74.67
18749;BME280;9503;53.560;10.246;2023-04-30T00:53:37;101601.53;;;8.95;74.07
18749;BME280;9503;53.560;10.246;2023-04-30T00:56:08;101594.44;;;8.91;74.22
18749;BME280;9503;53.560;10.246;2023-04-30T00:58:35;101597.25;;;8.82;74.16
18749;BME280;9503;53.560;10.246;2023-04-30T01:01:02;101596.81;;;8.76;74.43
18749;BME280;9503;53.560;10.246;2023-04-30T01:03:29;101604.94;;;8.71;75.44
18749;BME280;9503;53.560;10.246;2023-04-30T01:05:55;101607.97;;;8.65;74.97
18749;BME280;9503;53.560;10.246;2023-04-30T01:08:24;101611.72;;;8.70;75.55
18749;BME280;9503;53.560;10.246;2023-04-30T01:10:55;101608.75;;;8.64;75.25
18749;BME280;9503;53.560;10.246;2023-04-30T01:13:29;101619.59;;;8.73;75.78
18749;BME280;9503;53.560;10.246;2023-04-30T01:16:01;101618.41;;;8.68;75.97
18749;BME280;9503;53.560;10.246;2023-04-30T01:18:33;101628.31;;;8.64;75.87
18749;BME280;9503;53.560;10.246;2023-04-30T01:21:04;101610.31;;;8.62;76.00
18749;BME280;9503;53.560;10.246;2023-04-30T01:23:45;101612.22;;;8.53;75.82
18749;BME280;9503;53.560;10.246;2023-04-30T01:26:17;101615.31;;;8.97;74.73
18749;BME280;9503;53.560;10.246;2023-04-30T01:28:49;101620.44;;;8.97;73.10
18749;BME280;9503;53.560;10.246;2023-04-30T01:31:18;101609.94;;;9.06;72.64
18749;BME280;9503;53.560;10.246;2023-04-30T01:33:45;101610.41;;;9.00;73.50
18749;BME280;9503;53.560;10.246;2023-04-30T01:36:20;101623.09;;;8.99;73.04
18749;BME280;9503;53.560;10.246;2023-04-30T01:39:08;101620.06;;;9.29;72.12
18749;BME280;9503;53.560;10.246;2023-04-30T01:41:39;101627.34;;;8.86;72.89
18749;BME280;9503;53.560;10.246;2023-04-30T01:44:25;101619.19;;;9.04;72.96
18749;BME280;9503;53.560;10.246;2023-04-30T01:46:57;101618.47;;;9.18;72.05
18749;BME280;9503;53.560;10.246;2023-04-30T01:49:33;101623.53;;;8.68;73.40
18749;BME280;9503;53.560;10.246;2023-04-30T01:52:08;101626.78;;;8.91;72.64
18749;BME280;9503;53.560;10.246;2023-04-30T01:54:41;101630.69;;;8.85;72.53
18749;BME280;9503;53.560;10.246;2023-04-30T01:57:15;101633.28;;;8.74;72.19
18749;BME280;9503;53.560;10.246;2023-04-30T01:59:45;101635.09;;;8.51;72.79
18749;BME280;9503;53.560;10.246;2023-04-30T02:02:12;101632.56;;;8.04;74.84
18749;BME280;9503;53.560;10.246;2023-04-30T02:04:39;101638.44;;;8.03;76.18
18749;BME280;9503;53.560;10.246;2023-04-30T02:07:05;101642.78;;;8.88;73.58
18749;BME280;9503;53.560;10.246;2023-04-30T02:09:32;101643.56;;;8.99;72.73
18749;BME280;9503;53.560;10.246;2023-04-30T02:11:59;101648.06;;;9.03;72.01
18749;BME280;9503;53.560;10.246;2023-04-30T02:14:25;101647.09;;;9.01;71.91
18749;BME280;9503;53.560;10.246;2023-04-30T02:16:53;101640.13;;;8.98;72.11
18749;BME280;9503;53.560;10.246;2023-04-30T02:19:20;101648.31;;;8.69;71.93
18749;BME280;9503;53.560;10.246;2023-04-30T02:21:47;101654.28;;;8.81;72.44
18749;BME280;9503;53.560;10.246;2023-04-30T02:24:13;101656.38;;;8.87;71.57
18749;BME280;9503;53.560;10.246;2023-04-30T02:26:40;101656.22;;;8.49;72.57
18749;BME280;9503;53.560;10.246;2023-04-30T02:29:06;101653.44;;;8.34;73.29
18749;BME280;9503;53.560;10.246;2023-04-30T02:31:33;101644.34;;;8.26;73.79
18749;BME280;9503;53.560;10.246;2023-04-30T02:34:01;101650.88;;;8.22;73.16
18749;BME280;9503;53.560;10.246;2023-04-30T02:36:28;101654.22;;;8.21;72.99
18749;BME280;9503;53.560;10.246;2023-04-30T02:38:57;101651.66;;;8.21;73.60
18749;BME280;9503;53.560;10.246;2023-04-30T02:41:24;101656.13;;;8.24;73.68
18749;BME280;9503;53.560;10.246;2023-04-30T02:43:51;101656.09;;;8.12;73.88
18749;BME280;9503;53.560;10.246;2023-04-30T02:46:17;101655.22;;;8.12;73.50
18749;BME280;9503;53.560;10.246;2023-04-30T02:48:44;101654.34;;;8.11;73.56
18749;BME280;9503;53.560;10.246;2023-04-30T02:51:12;101658.13;;;8.40;72.80
18749;BME280;9503;53.560;10.246;2023-04-30T02:53:38;101668.09;;;8.01;74.28
18749;BME280;9503;53.560;10.246;2023-04-30T02:56:06;101660.22;;;8.10;74.58
18749;BME280;9503;53.560;10.246;2023-04-30T02:58:33;101655.19;;;8.00;73.77
18749;BME280;9503;53.560;10.246;2023-04-30T03:01:00;101667.09;;;7.88;73.89
18749;BME280;9503;53.560;10.246;2023-04-30T03:03:26;101671.41;;;8.00;73.20
18749;BME280;9503;53.560;10.246;2023-04-30T03:05:53;101665.75;;;7.81;73.86
18749;BME280;9503;53.560;10.246;2023-04-30T03:08:22;101661.88;;;7.98;73.56
18749;BME280;9503;53.560;10.246;2023-04-30T03:10:49;101669.31;;;7.95;72.82
18749;BME280;9503;53.560;10.246;2023-04-30T03:13:15;101659.66;;;8.14;72.50
18749;BME280;9503;53.560;10.246;2023-04-30T03:15:42;101664.84;;;7.92;72.40
18749;BME280;9503;53.560;10.246;2023-04-30T03:18:09;101675.50;;;7.75;73.73
18749;BME280;9503;53.560;10.246;2023-04-30T03:20:35;101667.47;;;7.59;74.28
18749;BME280;9503;53.560;10.246;2023-04-30T03:23:02;101661.91;;;7.53;74.85
18749;BME280;9503;53.560;10.246;2023-04-30T03:25:30;101667.22;;;7.44;75.06
18749;BME280;9503;53.560;10.246;2023-04-30T03:27:57;101664.25;;;7.50;74.48
18749;BME280;9503;53.560;10.246;2023-04-30T03:30:24;101677.88;;;7.50;74.51
18749;BME280;9503;53.560;10.246;2023-04-30T03:32:50;101678.53;;;7.26;75.82
18749;BME280;9503;53.560;10.246;2023-04-30T03:35:17;101678.22;;;7.21;75.86
18749;BME280;9503;53.560;10.246;2023-04-30T03:37:43;101675.22;;;7.27;76.35
18749;BME280;9503;53.560;10.246;2023-04-30T03:40:11;101672.97;;;7.87;74.61
18749;BME280;9503;53.560;10.246;2023-04-30T03:42:39;101674.50;;;7.73;73.36
18749;BME280;9503;53.560;10.246;2023-04-30T03:45:06;101673.13;;;7.33;75.34
18749;BME280;9503;53.560;10.246;2023-04-30T03:47:34;101681.50;;;7.42;76.12
18749;BME280;9503;53.560;10.246;2023-04-30T03:50:01;101677.66;;;7.25;76.28
18749;BME280;9503;53.560;10.246;2023-04-30T03:52:28;101686.94;;;7.35;75.84
18749;BME280;9503;53.560;10.246;2023-04-30T03:54:55;101684.69;;;7.39;75.16
18749;BME280;9503;53.560;10.246;2023-04-30T03:57:22;101687.63;;;7.44;75.15
18749;BME280;9503;53.560;10.246;2023-04-30T03:59:50;101692.16;;;7.48;75.74
18749;BME280;9503;53.560;10.246;2023-04-30T04:02:17;101696.94;;;7.43;75.85
18749;BME280;9503;53.560;10.246;2023-04-30T04:04:43;101690.09;;;7.32;75.75
18749;BME280;9503;53.560;10.246;2023-04-30T04:07:10;101694.44;;;7.11;76.74
18749;BME280;9503;53.560;10.246;2023-04-30T04:09:37;101693.16;;;7.72;75.20
18749;BME280;9503;53.560;10.246;2023-04-30T04:12:04;101689.50;;;7.92;74.03
18749;BME280;9503;53.560;10.246;2023-04-30T04:14:31;101689.44;;;8.49;72.20
18749;BME280;9503;53.560;10.246;2023-04-30T04:17:00;101694.78;;;8.75;71.25
18749;BME280;9503;53.560;10.246;2023-04-30T04:19:30;101702.53;;;8.65;71.70
18749;BME280;9503;53.560;10.246;2023-04-30T04:21:56;101700.56;;;8.61;72.32
18749;BME280;9503;53.560;10.246;2023-04-30T04:24:23;101701.56;;;8.75;72.55
18749;BME280;9503;53.560;10.246;2023-04-30T04:26:50;101705.28;;;8.80;73.35
18749;BME280;9503;53.560;10.246;2023-04-30T04:29:17;101702.88;;;9.18;74.36
18749;BME280;9503;53.560;10.246;2023-04-30T04:31:44;101712.91;;;9.40;75.35
18749;BME280;9503;53.560;10.246;2023-04-30T04:34:14;101704.69;;;9.82;74.07
18749;BME280;9503;53.560;10.246;2023-04-30T04:36:41;101713.22;;;9.45;73.75
18749;BME280;9503;53.560;10.246;2023-04-30T04:39:08;101711.50;;;9.32;74.19
18749;BME280;9503;53.560;10.246;2023-04-30T04:41:35;101710.25;;;9.63;73.61
18749;BME280;9503;53.560;10.246;2023-04-30T04:44:02;101712.91;;;9.65;73.43
18749;BME280;9503;53.560;10.246;2023-04-30T04:46:29;101722.13;;;9.50;73.99
18749;BME280;9503;53.560;10.246;2023-04-30T04:48:57;101719.94;;;8.94;75.64
18749;BME280;9503;53.560;10.246;2023-04-30T04:51:25;101726.97;;;8.97;75.61
18749;BME280;9503;53.560;10.246;2023-04-30T04:53:52;101728.84;;;8.99;76.50
18749;BME280;9503;53.560;10.246;2023-04-30T04:56:18;101734.28;;;9.04;76.80
18749;BME280;9503;53.560;10.246;2023-04-30T04:58:46;101728.81;;;9.11;76.47
18749;BME280;9503;53.560;10.246;2023-04-30T05:01:13;101740.78;;;9.24;76.45
18749;BME280;9503;53.560;10.246;2023-04-30T05:03:39;101731.75;;;10.17;75.24
18749;BME280;9503;53.560;10.246;2023-04-30T05:06:06;101738.75;;;10.06;74.30
18749;BME280;9503;53.560;10.246;2023-04-30T05:08:34;101741.59;;;10.36;74.30
18749;BME280;9503;53.560;10.246;2023-04-30T05:11:01;101750.22;;;9.86;75.53
18749;BME280;9503;53.560;10.246;2023-04-30T05:13:27;101747.06;;;9.90;76.24
18749;BME280;9503;53.560;10.246;2023-04-30T05:15:54;101746.50;;;9.94;75.83
18749;BME280;9503;53.560;10.246;2023-04-30T05:18:21;101747.31;;;10.07;76.04
18749;BME280;9503;53.560;10.246;2023-04-30T05:20:47;101746.69;;;10.75;73.67
18749;BME280;9503;53.560;10.246;2023-04-30T05:23:14;101747.72;;;11.19;74.13
18749;BME280;9503;53.560;10.246;2023-04-30T05:25:42;101760.28;;;12.28;73.96
18749;BME280;9503;53.560;10.246;2023-04-30T05:28:09;101764.19;;;13.60;70.63
18749;BME280;9503;53.560;10.246;2023-04-30T05:30:36;101764.31;;;14.64;65.34
18749;BME280;9503;53.560;10.246;2023-04-30T05:33:03;101771.09;;;14.62;62.03
18749;BME280;9503;53.560;10.246;2023-04-30T05:35:29;101768.59;;;14.29;60.89
18749;BME280;9503;53.560;10.246;2023-04-30T05:38:00;101761.59;;;14.27;61.32
18749;BME280;9503;53.560;10.246;2023-04-30T05:40:27;101771.59;;;15.84;57.13
18749;BME280;9503;53.560;10.246;2023-04-30T05:42:55;101766.66;;;18.11;54.54
18749;BME280;9503;53.560;10.246;2023-04-30T05:45:21;101779.41;;;19.69;49.58
18749;BME280;9503;53.560;10.246;2023-04-30T05:47:48;101780.56;;;20.81;46.15
18749;BME280;9503;53.560;10.246;2023-04-30T05:50:15;101786.16;;;20.60;45.10
18749;BME280;9503;53.560;10.246;2023-04-30T05:52:41;101786.03;;;20.55;44.63
18749;BME280;9503;53.560;10.246;2023-04-30T05:55:08;101806.16;;;20.98;44.97
18749;BME280;9503;53.560;10.246;2023-04-30T05:57:35;101794.81;;;20.95;44.32
18749;BME280;9503;53.560;10.246;2023-04-30T06:00:04;101798.91;;;21.64;42.87
18749;BME280;9503;53.560;10.246;2023-04-30T06:02:31;101807.28;;;22.38;42.00
18749;BME280;9503;53.560;10.246;2023-04-30T06:05:00;101804.53;;;21.84;41.94
18749;BME280;9503;53.560;10.246;2023-04-30T06:07:27;101803.47;;;20.58;43.48
18749;BME280;9503;53.560;10.246;2023-04-30T06:09:54;101805.22;;;19.93;44.96
18749;BME280;9503;53.560;10.246;2023-04-30T06:12:21;101804.78;;;18.90;44.81
18749;BME280;9503;53.560;10.246;2023-04-30T06:14:48;101799.44;;;16.93;48.95
18749;BME280;9503;53.560;10.246;2023-04-30T06:17:16;101798.41;;;16.89;48.84
18749;BME280;9503;53.560;10.246;2023-04-30T06:19:43;101797.66;;;16.92;48.75
18749;BME280;9503;53.560;10.246;2023-04-30T06:22:10;101792.50;;;16.71;50.33
18749;BME280;9503;53.560;10.246;2023-04-30T06:24:36;101794.84;;;16.03;50.74
18749;BME280;9503;53.560;10.246;2023-04-30T06:27:03;101791.31;;;16.22;50.79
18749;BME280;9503;53.560;10.246;2023-04-30T06:29:30;101799.72;;;17.00;49.72
18749;BME280;9503;53.560;10.246;2023-04-30T06:31:56;101797.94;;;16.77;49.77
18749;BME280;9503;53.560;10.246;2023-04-30T06:34:24;101801.91;;;16.08;49.95
18749;BME280;9503;53.560;10.246;2023-04-30T06:36:51;101801.66;;;16.22;51.33
18749;BME280;9503;53.560;10.246;2023-04-30T06:39:17;101808.44;;;15.99;50.81
18749;BME280;9503;53.560;10.246;2023-04-30T06:41:44;101801.38;;;16.56;50.26
18749;BME280;9503;53.560;10.246;2023-04-30T06:44:11;101811.75;;;17.21;49.17
18749;BME280;9503;53.560;10.246;2023-04-30T06:46:39;101807.03;;;17.10;47.82
18749;BME280;9503;53.560;10.246;2023-04-30T06:49:06;101816.22;;;17.25;46.72
18749;BME280;9503;53.560;10.246;2023-04-30T06:51:33;101809.66;;;16.27;46.84
18749;BME280;9503;53.560;10.246;2023-04-30T06:54:00;101815.75;;;16.29;47.67
18749;BME280;9503;53.560;10.246;2023-04-30T06:56:27;101820.63;;;16.42;47.81
18749;BME280;9503;53.560;10.246;2023-04-30T06:58:53;101810.81;;;16.14;47.23
18749;BME280;9503;53.560;10.246;2023-04-30T07:01:20;101808.44;;;15.99;48.68
18749;BME280;9503;53.560;10.246;2023-04-30T07:03:46;101814.25;;;15.74;47.89
18749;BME280;9503;53.560;10.246;2023-04-30T07:06:13;101811.69;;;15.19;47.76
18749;BME280;9503;53.560;10.246;2023-04-30T07:08:41;101810.78;;;14.64;49.17
18749;BME280;9503;53.560;10.246;2023-04-30T07:11:08;101822.56;;;15.12;47.92
18749;BME280;9503;53.560;10.246;2023-04-30T07:13:35;101818.66;;;15.20;48.27
18749;BME280;9503;53.560;10.246;2023-04-30T07:16:03;101825.13;;;15.12;48.49
18749;BME280;9503;53.560;10.246;2023-04-30T07:18:30;101828.63;;;15.87;47.95
18749;BME280;9503;53.560;10.246;2023-04-30T07:20:56;101830.47;;;16.70;47.20
18749;BME280;9503;53.560;10.246;2023-04-30T07:23:23;101825.09;;;17.54;44.63
18749;BME280;9503;53.560;10.246;2023-04-30T07:25:51;101824.53;;;17.62;44.21
18749;BME280;9503;53.560;10.246;2023-04-30T07:28:17;101827.94;;;17.15;44.91
18749;BME280;9503;53.560;10.246;2023-04-30T07:30:44;101829.03;;;16.57;46.04
18749;BME280;9503;53.560;10.246;2023-04-30T07:33:11;101834.00;;;17.38;44.10
18749;BME280;9503;53.560;10.246;2023-04-30T07:35:38;101832.66;;;16.61;46.66
18749;BME280;9503;53.560;10.246;2023-04-30T07:38:04;101835.88;;;17.87;44.42
18749;BME280;9503;53.560;10.246;2023-04-30T07:40:31;101827.56;;;18.46;42.75
18749;BME280;9503;53.560;10.246;2023-04-30T07:42:59;101825.63;;;17.45;43.68
18749;BME280;9503;53.560;10.246;2023-04-30T07:45:26;101827.59;;;17.06;44.93
18749;BME280;9503;53.560;10.246;2023-04-30T07:47:53;101826.28;;;17.17;44.61
18749;BME280;9503;53.560;10.246;2023-04-30T07:50:19;101826.97;;;15.70;46.24
18749;BME280;9503;53.560;10.246;2023-04-30T07:52:47;101830.78;;;16.38;45.77
18749;BME280;9503;53.560;10.246;2023-04-30T07:55:14;101833.72;;;16.87;45.51
18749;BME280;9503;53.560;10.246;2023-04-30T07:57:43;101832.19;;;16.70;45.67
18749;BME280;9503;53.560;10.246;2023-04-30T08:00:14;101844.41;;;16.95;45.73
18749;BME280;9503;53.560;10.246;2023-04-30T08:02:41;101848.81;;;16.55;44.96
18749;BME280;9503;53.560;10.246;2023-04-30T08:05:10;101845.28;;;16.74;44.82
18749;BME280;9503;53.560;10.246;2023-04-30T08:07:36;101843.56;;;16.96;44.62
18749;BME280;9503;53.560;10.246;2023-04-30T08:10:05;101840.88;;;16.93;45.61
18749;BME280;9503;53.560;10.246;2023-04-30T08:12:34;101833.88;;;16.69;46.14
18749;BME280;9503;53.560;10.246;2023-04-30T08:15:02;101837.25;;;16.47;45.49
18749;BME280;9503;53.560;10.246;2023-04-30T08:17:31;101835.34;;;16.43;46.58
18749;BME280;9503;53.560;10.246;2023-04-30T08:19:59;101839.59;;;16.41;45.62
18749;BME280;9503;53.560;10.246;2023-04-30T08:22:25;101844.94;;;16.06;45.83
18749;BME280;9503;53.560;10.246;2023-04-30T08:24:52;101839.38;;;15.96;45.62
18749;BME280;9503;53.560;10.246;2023-04-30T08:27:20;101840.78;;;16.49;45.58
18749;BME280;9503;53.560;10.246;2023-04-30T08:29:46;101845.66;;;16.22;46.34
18749;BME280;9503;53.560;10.246;2023-04-30T08:32:13;101848.66;;;16.52;44.88
18749;BME280;9503;53.560;10.246;2023-04-30T08:34:41;101845.75;;;16.24;45.83
18749;BME280;9503;53.560;10.246;2023-04-30T08:37:08;101844.56;;;16.37;45.30
18749;BME280;9503;53.560;10.246;2023-04-30T08:39:34;101848.22;;;16.82;44.25
18749;BME280;9503;53.560;10.246;2023-04-30T08:42:02;101849.31;;;17.09;44.32
18749;BME280;9503;53.560;10.246;2023-04-30T08:44:30;101857.47;;;17.41;43.14
18749;BME280;9503;53.560;10.246;2023-04-30T08:46:58;101848.44;;;17.31;43.54
18749;BME280;9503;53.560;10.246;2023-04-30T08:49:25;101834.19;;;16.77;45.01
18749;BME280;9503;53.560;10.246;2023-04-30T08:51:53;101841.00;;;16.54;45.86
18749;BME280;9503;53.560;10.246;2023-04-30T08:54:22;101834.88;;;16.94;45.83
18749;BME280;9503;53.560;10.246;2023-04-30T08:56:49;101834.47;;;16.64;45.48
18749;BME280;9503;53.560;10.246;2023-04-30T08:59:16;101838.00;;;16.66;46.13
18749;BME280;9503;53.560;10.246;2023-04-30T09:01:43;101845.75;;;16.85;45.46
18749;BME280;9503;53.560;10.246;2023-04-30T09:04:10;101849.13;;;16.82;44.70
18749;BME280;9503;53.560;10.246;2023-04-30T09:06:37;101848.59;;;16.70;44.48
18749;BME280;9503;53.560;10.246;2023-04-30T09:09:09;101845.72;;;16.64;45.35
18749;BME280;9503;53.560;10.246;2023-04-30T09:11:37;101847.25;;;16.80;46.05
18749;BME280;9503;53.560;10.246;2023-04-30T09:14:04;101858.41;;;17.21;44.46
18749;BME280;9503;53.560;10.246;2023-04-30T09:16:44;101850.19;;;17.10;45.22
18749;BME280;9503;53.560;10.246;2023-04-30T09:19:22;101849.19;;;17.06;44.64
18749;BME280;9503;53.560;10.246;2023-04-30T09:21:48;101834.34;;;17.25;45.33
18749;BME280;9503;53.560;10.246;2023-04-30T09:24:18;101843.81;;;17.02;44.86
18749;BME280;9503;53.560;10.246;2023-04-30T09:26:45;101840.91;;;17.37;44.53
18749;BME280;9503;53.560;10.246;2023-04-30T09:29:12;101840.78;;;16.49;46.46
18749;BME280;9503;53.560;10.246;2023-04-30T09:31:42;101838.13;;;16.27;45.91
18749;BME280;9503;53.560;10.246;2023-04-30T09:34:09;101838.13;;;17.10;45.75
18749;BME280;9503;53.560;10.246;2023-04-30T09:36:36;101836.84;;;17.44;43.95
18749;BME280;9503;53.560;10.246;2023-04-30T09:39:06;101843.56;;;17.39;44.78
18749;BME280;9503;53.560;10.246;2023-04-30T09:41:34;101843.16;;;17.73;43.70
18749;BME280;9503;53.560;10.246;2023-04-30T09:44:01;101838.00;;;17.75;43.62
18749;BME280;9503;53.560;10.246;2023-04-30T09:46:32;101834.22;;;17.89;44.10
18749;BME280;9503;53.560;10.246;2023-04-30T09:49:00;101830.19;;;17.51;43.29
18749;BME280;9503;53.560;10.246;2023-04-30T09:51:27;101831.06;;;17.74;44.13
18749;BME280;9503;53.560;10.246;2023-04-30T09:53:54;101824.66;;;18.12;44.23
18749;BME280;9503;53.560;10.246;2023-04-30T09:56:22;101834.28;;;18.40;42.33
18749;BME280;9503;53.560;10.246;2023-04-30T09:58:53;101826.38;;;18.88;41.13
18749;BME280;9503;53.560;10.246;2023-04-30T10:01:21;101827.97;;;19.11;41.04
18749;BME280;9503;53.560;10.246;2023-04-30T10:03:48;101815.31;;;19.23;41.62
18749;BME280;9503;53.560;10.246;2023-04-30T10:06:15;101812.88;;;19.28;41.72
18749;BME280;9503;53.560;10.246;2023-04-30T10:08:46;101818.41;;;19.10;41.48
18749;BME280;9503;53.560;10.246;2023-04-30T10:11:17;101810.66;;;19.69;40.35
18749;BME280;9503;53.560;10.246;2023-04-30T10:13:51;101808.06;;;20.02;40.42
18749;BME280;9503;53.560;10.246;2023-04-30T10:16:26;101804.81;;;19.77;40.23
18749;BME280;9503;53.560;10.246;2023-04-30T10:18:58;101814.56;;;20.49;39.66
18749;BME280;9503;53.560;10.246;2023-04-30T10:21:25;101808.09;;;18.86;41.02
18749;BME280;9503;53.560;10.246;2023-04-30T10:23:54;101804.34;;;18.26;41.94
18749;BME280;9503;53.560;10.246;2023-04-30T10:26:21;101800.34;;;19.45;40.45
18749;BME280;9503;53.560;10.246;2023-04-30T10:28:49;101807.03;;;19.64;40.60
18749;BME280;9503;53.560;10.246;2023-04-30T10:31:19;101806.69;;;20.48;40.53
18749;BME280;9503;53.560;10.246;2023-04-30T10:33:53;101805.84;;;20.85;38.22
18749;BME280;9503;53.560;10.246;2023-04-30T10:36:28;101802.09;;;20.72;39.12
18749;BME280;9503;53.560;10.246;2023-04-30T10:38:58;101796.56;;;20.96;39.58
18749;BME280;9503;53.560;10.246;2023-04-30T10:41:26;101800.53;;;20.80;38.80
18749;BME280;9503;53.560;10.246;2023-04-30T10:43:55;101801.47;;;20.48;39.21
18749;BME280;9503;53.560;10.246;2023-04-30T10:46:25;101797.09;;;21.20;37.96
18749;BME280;9503;53.560;10.246;2023-04-30T10:48:52;101788.22;;;20.75;38.46
18749;BME280;9503;53.560;10.246;2023-04-30T10:51:20;101780.28;;;21.89;37.39
18749;BME280;9503;53.560;10.246;2023-04-30T10:53:49;101778.75;;;22.52;37.25
18749;BME280;9503;53.560;10.246;2023-04-30T10:56:29;101779.88;;;22.68;36.56
18749;BME280;9503;53.560;10.246;2023-04-30T10:58:58;101779.16;;;21.34;37.69
18749;BME280;9503;53.560;10.246;2023-04-30T11:01:27;101778.38;;;22.29;36.94
18749;BME280;9503;53.560;10.246;2023-04-30T11:04:05;101769.69;;;22.30;36.54
18749;BME280;9503;53.560;10.246;2023-04-30T11:07:06;101774.75;;;22.74;36.33
18749;BME280;9503;53.560;10.246;2023-04-30T11:09:39;101769.84;;;22.95;35.79
18749;BME280;9503;53.560;10.246;2023-04-30T11:12:11;101769.75;;;22.33;36.11
18749;BME280;9503;53.560;10.246;2023-04-30T11:14:42;101772.38;;;22.34;35.76
18749;BME280;9503;53.560;10.246;2023-04-30T11:17:13;101773.06;;;22.24;36.94
18749;BME280;9503;53.560;10.246;2023-04-30T11:19:47;101762.72;;;22.29;36.81
18749;BME280;9503;53.560;10.246;2023-04-30T11:22:16;101760.06;;;22.83;35.74
18749;BME280;9503;53.560;10.246;2023-04-30T11:24:52;101765.88;;;22.64;36.58
18749;BME280;9503;53.560;10.246;2023-04-30T11:27:22;101760.91;;;22.81;36.79
18749;BME280;9503;53.560;10.246;2023-04-30T11:29:49;101758.53;;;23.63;35.68
18749;BME280;9503;53.560;10.246;2023-04-30T11:32:18;101759.09;;;23.40;37.01
18749;BME280;9503;53.560;10.246;2023-04-30T11:34:46;101758.94;;;22.66;35.96
18749;BME280;9503;53.560;10.246;2023-04-30T11:37:18;101754.16;;;22.94;36.77
18749;BME280;9503;53.560;10.246;2023-04-30T11:39:46;101762.81;;;22.91;37.83
18749;BME280;9503;53.560;10.246;2023-04-30T11:42:15;101764.38;;;22.81;36.98
18749;BME280;9503;53.560;10.246;2023-04-30T11:44:43;101763.28;;;22.64;35.53
18749;BME280;9503;53.560;10.246;2023-04-30T11:47:09;101761.31;;;22.49;35.87
18749;BME280;9503;53.560;10.246;2023-04-30T11:49:37;101761.66;;;22.74;35.34
18749;BME280;9503;53.560;10.246;2023-04-30T11:52:04;101753.03;;;22.79;35.93
18749;BME280;9503;53.560;10.246;2023-04-30T11:54:35;101742.44;;;23.32;34.53
18749;BME280;9503;53.560;10.246;2023-04-30T11:57:01;101750.72;;;23.66;34.63
18749;BME280;9503;53.560;10.246;2023-04-30T11:59:29;101743.38;;;23.37;34.23
18749;BME280;9503;53.560;10.246;2023-04-30T12:01:56;101742.16;;;23.09;34.95
18749;BME280;9503;53.560;10.246;2023-04-30T12:04:23;101740.06;;;23.55;34.73
18749;BME280;9503;53.560;10.246;2023-04-30T12:06:51;101737.34;;;23.46;34.77
18749;BME280;9503;53.560;10.246;2023-04-30T12:09:18;101731.88;;;21.20;36.83
18749;BME280;9503;53.560;10.246;2023-04-30T12:11:46;101742.69;;;20.59;39.23
18749;BME280;9503;53.560;10.246;2023-04-30T12:14:13;101736.06;;;21.53;37.66
18749;BME280;9503;53.560;10.246;2023-04-30T12:16:41;101728.53;;;22.17;37.02
18749;BME280;9503;53.560;10.246;2023-04-30T12:19:08;101734.50;;;22.64;35.42
18749;BME280;9503;53.560;10.246;2023-04-30T12:21:35;101724.81;;;23.17;35.73
18749;BME280;9503;53.560;10.246;2023-04-30T12:24:04;101728.38;;;24.03;34.33
18749;BME280;9503;53.560;10.246;2023-04-30T12:26:34;101728.13;;;24.84;33.59
18749;BME280;9503;53.560;10.246;2023-04-30T12:29:03;101732.31;;;24.57;34.35
18749;BME280;9503;53.560;10.246;2023-04-30T12:31:31;101725.81;;;24.09;33.99
18749;BME280;9503;53.560;10.246;2023-04-30T12:34:02;101720.75;;;24.32;34.04
18749;BME280;9503;53.560;10.246;2023-04-30T12:36:30;101725.25;;;24.47;33.25
18749;BME280;9503;53.560;10.246;2023-04-30T12:39:04;101726.03;;;24.37;33.92
18749;BME280;9503;53.560;10.246;2023-04-30T12:41:35;101715.22;;;24.00;33.67
18749;BME280;9503;53.560;10.246;2023-04-30T12:44:18;101711.56;;;23.80;34.80
18749;BME280;9503;53.560;10.246;2023-04-30T12:46:46;101715.91;;;24.92;33.63
18749;BME280;9503;53.560;10.246;2023-04-30T12:49:21;101713.63;;;25.88;32.73
18749;BME280;9503;53.560;10.246;2023-04-30T12:51:49;101712.75;;;25.87;32.74
18749;BME280;9503;53.560;10.246;2023-04-30T12:54:25;101714.03;;;24.72;33.91
18749;BME280;9503;53.560;10.246;2023-04-30T12:57:01;101704.75;;;25.46;33.33
18749;BME280;9503;53.560;10.246;2023-04-30T12:59:29;101700.31;;;25.25;33.40
18749;BME280;9503;53.560;10.246;2023-04-30T13:02:04;101693.50;;;26.01;32.89